createdAt,value
2022-09-29T00:00:41.727Z,0.00
2022-09-29T00:01:41.716Z,0.00
2022-09-29T00:02:42.698Z,0.00
2022-09-29T00:03:41.675Z,0.00
2022-09-29T00:04:42.471Z,0.00
2022-09-29T00:05:41.685Z,0.00
2022-09-29T00:06:42.607Z,0.00
2022-09-29T00:07:42.443Z,0.00
2022-09-29T00:08:42.599Z,0.00
2022-09-29T00:09:42.503Z,0.00
2022-09-29T00:10:42.422Z,0.00
2022-09-29T00:11:41.573Z,0.00
2022-09-29T00:12:42.472Z,0.00
2022-09-29T00:13:41.563Z,0.00
2022-09-29T00:14:45.716Z,0.00
2022-09-29T00:15:43.463Z,0.00
2022-09-29T00:16:42.397Z,0.00
2022-09-29T00:18:02.703Z,0.00
2022-09-29T00:18:43.275Z,0.00
2022-09-29T00:19:42.312Z,0.00
2022-09-29T00:20:41.694Z,0.00
2022-09-29T00:21:42.374Z,0.00
2022-09-29T00:22:42.276Z,0.00
2022-09-29T00:23:42.186Z,0.00
2022-09-29T00:24:41.403Z,0.00
2022-09-29T00:25:42.248Z,0.00
2022-09-29T00:26:41.385Z,0.00
2022-09-29T00:27:42.309Z,0.00
2022-09-29T00:28:41.346Z,0.00
2022-09-29T00:29:42.116Z,0.00
2022-09-29T00:30:42.283Z,0.00
2022-09-29T00:31:42.233Z,0.00
2022-09-29T00:32:42.085Z,0.00
2022-09-29T00:33:41.257Z,0.00
2022-09-29T00:34:42.162Z,0.00
2022-09-29T00:35:41.236Z,0.00
2022-09-29T00:36:42.215Z,0.00
2022-09-29T00:37:42.687Z,0.00
2022-09-29T00:38:42.023Z,0.00
2022-09-29T00:39:41.207Z,0.00
2022-09-29T00:40:42.141Z,0.00
2022-09-29T00:41:41.986Z,0.00
2022-09-29T00:42:42.170Z,0.00
2022-09-29T00:43:41.125Z,0.00
2022-09-29T00:44:41.125Z,0.00
2022-09-29T00:45:42.180Z,0.00
2022-09-29T00:46:42.039Z,0.00
2022-09-29T00:47:41.930Z,0.00
2022-09-29T00:48:42.527Z,0.00
2022-09-29T00:49:41.987Z,0.00
2022-09-29T00:50:41.899Z,0.00
2022-09-29T00:51:41.082Z,0.00
2022-09-29T00:52:41.082Z,0.00
2022-09-29T00:53:41.859Z,0.00
2022-09-29T00:54:41.002Z,0.00
2022-09-29T00:55:40.983Z,0.00
2022-09-29T00:56:40.991Z,0.00
2022-09-29T00:57:41.730Z,0.00
2022-09-29T00:58:40.934Z,0.00
2022-09-29T00:59:41.806Z,0.00
2022-09-29T01:00:41.768Z,0.00
2022-09-29T01:01:41.884Z,0.00
2022-09-29T01:02:40.877Z,0.00
2022-09-29T01:03:41.668Z,0.00
2022-09-29T01:04:40.848Z,0.00
2022-09-29T01:05:41.735Z,0.00
2022-09-29T01:06:41.639Z,0.00
2022-09-29T01:07:41.810Z,0.00
2022-09-29T01:08:41.699Z,0.00
2022-09-29T01:09:40.779Z,0.00
2022-09-29T01:10:41.768Z,0.00
2022-09-29T01:11:41.670Z,0.00
2022-09-29T01:12:41.572Z,0.00
2022-09-29T01:13:41.788Z,0.00
2022-09-29T01:14:42.180Z,0.00
2022-09-29T01:15:40.701Z,0.00
2022-09-29T01:16:40.760Z,0.00
2022-09-29T01:17:40.670Z,0.00
2022-09-29T01:18:41.511Z,0.00
2022-09-29T01:19:40.670Z,0.00
2022-09-29T01:20:41.573Z,0.00
2022-09-29T01:21:40.651Z,0.00
2022-09-29T01:22:40.709Z,0.00
2022-09-29T01:23:41.542Z,0.00
2022-09-29T01:24:41.477Z,0.00
2022-09-29T01:25:41.113Z,0.00
2022-09-29T01:26:41.509Z,0.00
2022-09-29T01:27:41.414Z,0.00
2022-09-29T01:28:40.534Z,0.00
2022-09-29T01:29:41.480Z,0.00
2022-09-29T01:30:41.239Z,0.00
2022-09-29T01:31:40.591Z,0.00
2022-09-29T01:32:41.447Z,0.00
2022-09-29T01:33:40.450Z,0.00
2022-09-29T01:34:40.472Z,0.00
2022-09-29T01:35:41.413Z,0.00
2022-09-29T01:36:41.312Z,0.00
2022-09-29T01:37:41.222Z,0.00
2022-09-29T01:38:40.393Z,0.00
2022-09-29T01:39:40.427Z,0.00
2022-09-29T01:40:41.258Z,0.00
2022-09-29T01:41:41.353Z,0.00
2022-09-29T01:42:41.290Z,0.00
2022-09-29T01:43:41.157Z,0.00
2022-09-29T01:44:40.356Z,0.00
2022-09-29T01:45:40.318Z,0.00
2022-09-29T01:46:40.303Z,0.00
2022-09-29T01:47:41.038Z,0.00
2022-09-29T01:48:41.189Z,0.00
2022-09-29T01:49:41.093Z,0.00
2022-09-29T01:50:40.319Z,0.00
2022-09-29T01:51:40.912Z,0.00
2022-09-29T01:52:40.194Z,0.00
2022-09-29T01:53:41.069Z,0.00
2022-09-29T01:54:40.373Z,0.00
2022-09-29T01:55:41.024Z,0.00
2022-09-29T01:56:40.957Z,0.00
2022-09-29T01:57:41.094Z,0.00
2022-09-29T01:58:40.994Z,0.00
2022-09-29T01:59:40.934Z,0.00
2022-09-29T02:00:41.160Z,0.00
2022-09-29T02:01:41.017Z,0.00
2022-09-29T02:02:41.566Z,0.00
2022-09-29T02:03:40.034Z,0.00
2022-09-29T02:04:40.056Z,0.00
2022-09-29T02:05:40.054Z,0.00
2022-09-29T02:06:39.995Z,0.00
2022-09-29T02:07:40.000Z,0.00
2022-09-29T02:08:39.977Z,0.00
2022-09-29T02:09:40.970Z,0.00
2022-09-29T02:10:40.866Z,0.00
2022-09-29T02:11:40.823Z,0.00
2022-09-29T02:12:40.717Z,0.00
2022-09-29T02:13:40.675Z,0.00
2022-09-29T02:14:40.740Z,0.00
2022-09-29T02:15:40.655Z,0.00
2022-09-29T02:16:39.932Z,0.00
2022-09-29T02:17:40.720Z,0.00
2022-09-29T02:18:40.872Z,0.00
2022-09-29T02:19:41.313Z,0.00
2022-09-29T02:20:40.689Z,0.00
2022-09-29T02:21:40.614Z,0.00
2022-09-29T02:22:39.778Z,0.00
2022-09-29T02:23:40.662Z,0.00
2022-09-29T02:24:40.737Z,0.00
2022-09-29T02:25:40.718Z,0.00
2022-09-29T02:26:40.620Z,0.00
2022-09-29T02:27:40.518Z,0.00
2022-09-29T02:28:39.700Z,0.00
2022-09-29T02:29:39.687Z,0.00
2022-09-29T02:30:40.489Z,0.00
2022-09-29T02:31:39.736Z,0.00
2022-09-29T02:32:40.558Z,0.00
2022-09-29T02:33:39.641Z,0.00
2022-09-29T02:34:40.616Z,0.00
2022-09-29T02:35:39.589Z,0.00
2022-09-29T02:36:40.421Z,0.00
2022-09-29T02:37:39.577Z,0.00
2022-09-29T02:38:40.493Z,0.00
2022-09-29T02:39:39.556Z,0.00
2022-09-29T02:40:39.602Z,0.00
2022-09-29T02:41:40.459Z,0.00
2022-09-29T02:42:39.558Z,0.00
2022-09-29T02:43:40.265Z,0.00
2022-09-29T02:44:39.491Z,0.00
2022-09-29T02:45:40.359Z,0.00
2022-09-29T02:46:39.533Z,0.00
2022-09-29T02:47:40.426Z,0.00
2022-09-29T02:48:40.300Z,0.00
2022-09-29T02:49:40.226Z,0.00
2022-09-29T02:50:40.362Z,0.00
2022-09-29T02:51:40.269Z,0.00
2022-09-29T02:52:40.162Z,0.00
2022-09-29T02:53:40.329Z,0.00
2022-09-29T02:54:39.352Z,0.00
2022-09-29T02:55:39.346Z,0.00
2022-09-29T02:56:39.321Z,0.00
2022-09-29T02:57:40.241Z,0.00
2022-09-29T02:58:40.100Z,0.00
2022-09-29T02:59:40.260Z,0.00
2022-09-29T03:00:39.365Z,0.00
2022-09-29T03:01:39.270Z,0.00
2022-09-29T03:02:40.709Z,0.00
2022-09-29T03:03:40.195Z,0.00
2022-09-29T03:04:39.317Z,0.00
2022-09-29T03:05:40.201Z,0.00
2022-09-29T03:06:40.101Z,0.00
2022-09-29T03:07:40.010Z,0.00
2022-09-29T03:08:40.179Z,0.00
2022-09-29T03:09:39.134Z,0.00
2022-09-29T03:10:39.974Z,0.00
2022-09-29T03:11:39.113Z,0.00
2022-09-29T03:12:39.100Z,0.00
2022-09-29T03:13:39.950Z,0.00
2022-09-29T03:14:39.843Z,0.00
2022-09-29T03:15:40.004Z,0.00
2022-09-29T03:16:39.077Z,0.00
2022-09-29T03:17:39.822Z,0.00
2022-09-29T03:18:39.539Z,0.00
2022-09-29T03:19:39.025Z,0.00
2022-09-29T03:20:39.028Z,0.00
2022-09-29T03:21:39.014Z,0.00
2022-09-29T03:22:38.954Z,0.00
2022-09-29T03:23:39.757Z,0.00
2022-09-29T03:24:39.913Z,0.00
2022-09-29T03:25:39.816Z,0.00
2022-09-29T03:26:38.934Z,0.00
2022-09-29T03:27:38.896Z,0.00
2022-09-29T03:28:38.908Z,0.00
2022-09-29T03:29:38.916Z,0.00
2022-09-29T03:30:38.901Z,0.00
2022-09-29T03:31:39.806Z,0.00
2022-09-29T03:32:38.916Z,0.00
2022-09-29T03:33:38.984Z,0.00
2022-09-29T03:34:38.947Z,0.00
2022-09-29T03:35:44.239Z,0.00
2022-09-29T03:36:40.559Z,0.00
2022-09-29T03:37:38.743Z,0.00
2022-09-29T03:38:39.593Z,0.00
2022-09-29T03:39:39.495Z,0.00
2022-09-29T03:40:39.678Z,0.00
2022-09-29T03:41:39.558Z,0.00
2022-09-29T03:42:38.686Z,0.00
2022-09-29T03:43:39.626Z,0.00
2022-09-29T03:44:39.527Z,0.00
2022-09-29T03:45:39.461Z,0.00
2022-09-29T03:46:39.590Z,0.00
2022-09-29T03:47:38.626Z,0.00
2022-09-29T03:48:38.607Z,0.00
2022-09-29T03:49:38.606Z,0.00
2022-09-29T03:50:38.600Z,0.00
2022-09-29T03:51:39.366Z,0.00
2022-09-29T03:52:39.533Z,0.00
2022-09-29T03:53:39.439Z,0.00
2022-09-29T03:54:39.340Z,0.00
2022-09-29T03:55:38.505Z,0.00
2022-09-29T03:56:39.950Z,0.00
2022-09-29T03:57:39.351Z,0.00
2022-09-29T03:58:38.479Z,0.00
2022-09-29T03:59:42.049Z,0.00
2022-09-29T04:00:40.317Z,0.00
2022-09-29T04:01:39.972Z,0.00
2022-09-29T04:02:39.337Z,0.00
2022-09-29T04:03:38.428Z,0.00
2022-09-29T04:04:39.158Z,0.00
2022-09-29T04:05:38.661Z,0.00
2022-09-29T04:06:38.374Z,0.00
2022-09-29T04:07:39.109Z,0.00
2022-09-29T04:08:39.270Z,0.00
2022-09-29T04:09:39.177Z,0.00
2022-09-29T04:10:38.325Z,0.00
2022-09-29T04:11:38.312Z,0.00
2022-09-29T04:12:38.316Z,0.00
2022-09-29T04:13:38.300Z,0.00
2022-09-29T04:14:38.265Z,0.00
2022-09-29T04:15:38.228Z,0.00
2022-09-29T04:16:39.083Z,0.00
2022-09-29T04:17:39.170Z,0.00
2022-09-29T04:18:39.078Z,0.00
2022-09-29T04:19:38.215Z,0.00
2022-09-29T04:20:39.150Z,0.00
2022-09-29T04:21:38.149Z,0.00
2022-09-29T04:22:39.765Z,0.00
2022-09-29T04:23:38.163Z,0.00
2022-09-29T04:24:38.113Z,0.00
2022-09-29T04:25:38.121Z,0.00
2022-09-29T04:26:38.094Z,0.00
2022-09-29T04:27:39.010Z,0.00
2022-09-29T04:28:38.067Z,0.00
2022-09-29T04:29:39.135Z,0.00
2022-09-29T04:30:38.951Z,0.00
2022-09-29T04:31:38.910Z,0.00
2022-09-29T04:32:38.760Z,0.00
2022-09-29T04:33:38.922Z,0.00
2022-09-29T04:34:38.147Z,0.00
2022-09-29T04:35:38.104Z,0.00
2022-09-29T04:36:37.980Z,0.00
2022-09-29T04:37:38.790Z,0.00
2022-09-29T04:38:37.939Z,0.00
2022-09-29T04:39:38.851Z,0.00
2022-09-29T04:40:37.987Z,0.00
2022-09-29T04:41:38.680Z,0.00
2022-09-29T04:42:38.823Z,4.00
2022-09-29T04:43:38.729Z,4.00
2022-09-29T04:44:38.861Z,0.00
2022-09-29T04:45:38.851Z,4.00
2022-09-29T04:46:38.692Z,4.00
2022-09-29T04:47:37.860Z,4.00
2022-09-29T04:48:38.129Z,8.00
2022-09-29T04:49:38.664Z,8.00
2022-09-29T04:50:38.592Z,8.00
2022-09-29T04:51:38.734Z,12.00
2022-09-29T04:52:37.763Z,12.00
2022-09-29T04:53:37.745Z,12.00
2022-09-29T04:54:38.381Z,16.00
2022-09-29T04:55:38.623Z,20.00
2022-09-29T04:56:38.526Z,20.00
2022-09-29T04:57:37.686Z,28.00
2022-09-29T04:58:38.578Z,32.00
2022-09-29T04:59:37.660Z,40.00
2022-09-29T05:00:39.117Z,44.00
2022-09-29T05:01:38.537Z,56.00
2022-09-29T05:02:38.504Z,60.00
2022-09-29T05:03:37.695Z,68.00
2022-09-29T05:04:37.597Z,84.00
2022-09-29T05:05:37.570Z,96.00
2022-09-29T05:06:38.337Z,112.00
2022-09-29T05:07:37.589Z,128.00
2022-09-29T05:08:37.552Z,148.00
2022-09-29T05:09:38.312Z,168.00
2022-09-29T05:10:37.488Z,188.00
2022-09-29T05:11:38.950Z,216.00
2022-09-29T05:12:37.600Z,240.00
2022-09-29T05:13:37.469Z,268.00
2022-09-29T05:14:37.444Z,300.00
2022-09-29T05:15:37.619Z,328.00
2022-09-29T05:16:38.461Z,360.00
2022-09-29T05:17:38.313Z,396.00
2022-09-29T05:18:38.199Z,432.00
2022-09-29T05:19:38.345Z,472.00
2022-09-29T05:20:44.734Z,512.00
2022-09-29T05:21:39.177Z,556.00
2022-09-29T05:22:38.309Z,604.00
2022-09-29T05:23:37.306Z,660.00
2022-09-29T05:24:37.383Z,712.00
2022-09-29T05:25:38.330Z,776.00
2022-09-29T05:26:37.295Z,840.00
2022-09-29T05:27:38.027Z,908.00
2022-09-29T05:28:37.485Z,984.00
2022-09-29T05:29:38.201Z,1056.00
2022-09-29T05:30:37.393Z,1132.00
2022-09-29T05:31:38.003Z,1216.00
2022-09-29T05:32:38.145Z,1300.00
2022-09-29T05:33:38.183Z,1388.00
2022-09-29T05:34:37.938Z,1476.00
2022-09-29T05:35:37.475Z,1568.00
2022-09-29T05:36:38.008Z,1664.00
2022-09-29T05:37:37.129Z,1760.00
2022-09-29T05:38:37.098Z,1864.00
2022-09-29T05:39:37.291Z,1968.00
2022-09-29T05:40:37.277Z,2072.00
2022-09-29T05:41:37.160Z,2184.00
2022-09-29T05:42:37.062Z,2284.00
2022-09-29T05:43:37.829Z,2404.00
2022-09-29T05:44:38.469Z,2512.00
2022-09-29T05:45:37.960Z,2620.00
2022-09-29T05:46:37.817Z,2724.00
2022-09-29T05:47:37.989Z,2848.00
2022-09-29T05:48:37.863Z,2972.00
2022-09-29T05:49:37.908Z,3104.00
2022-09-29T05:50:37.935Z,3208.00
2022-09-29T05:51:36.961Z,3320.00
2022-09-29T05:52:37.734Z,3440.00
2022-09-29T05:53:37.892Z,3556.00
2022-09-29T05:54:37.816Z,3660.00
2022-09-29T05:55:37.753Z,3772.00
2022-09-29T05:56:40.688Z,3896.00
2022-09-29T05:57:38.795Z,4012.00
2022-09-29T05:58:37.670Z,4152.00
2022-09-29T05:59:37.609Z,4296.00
2022-09-29T06:00:36.823Z,4448.00
2022-09-29T06:01:37.694Z,4612.00
2022-09-29T06:02:37.630Z,4704.00
2022-09-29T06:03:37.703Z,4864.00
2022-09-29T06:04:40.691Z,4992.00
2022-09-29T06:05:36.748Z,5120.00
2022-09-29T06:06:37.676Z,5216.00
2022-09-29T06:07:37.572Z,5332.00
2022-09-29T06:08:36.716Z,5500.00
2022-09-29T06:09:37.634Z,5676.00
2022-09-29T06:10:37.595Z,5768.00
2022-09-29T06:11:38.124Z,5836.00
2022-09-29T06:12:37.526Z,5884.00
2022-09-29T06:13:36.764Z,5868.00
2022-09-29T06:14:37.476Z,5856.00
2022-09-29T06:15:36.623Z,5936.00
2022-09-29T06:16:36.699Z,5996.00
2022-09-29T06:17:36.945Z,6148.00
2022-09-29T06:19:07.726Z,6528.00
2022-09-29T06:19:39.752Z,6652.00
2022-09-29T06:20:39.499Z,6724.00
2022-09-29T06:21:38.256Z,6856.00
2022-09-29T06:22:43.686Z,7136.00
2022-09-29T06:23:43.986Z,7364.00
2022-09-29T06:24:43.836Z,7584.00
2022-09-29T06:25:41.377Z,7796.00
2022-09-29T06:26:44.536Z,7892.00
2022-09-29T06:27:38.427Z,8144.00
2022-09-29T06:29:55.871Z,8468.00
2022-09-29T06:30:53.768Z,8588.00
2022-09-29T06:31:53.898Z,8728.00
2022-09-29T06:32:53.806Z,8772.00
2022-09-29T06:33:54.132Z,9028.00
2022-09-29T06:34:58.437Z,9132.00
2022-09-29T06:35:59.382Z,9512.00
2022-09-29T06:36:53.913Z,9896.00
2022-09-29T06:37:53.913Z,9844.00
2022-09-29T06:38:55.912Z,9660.00
2022-09-29T06:39:53.912Z,9648.00
2022-09-29T06:40:53.737Z,9980.00
2022-09-29T06:41:55.497Z,10064.00
2022-09-29T06:42:54.754Z,10036.00
2022-09-29T06:43:55.195Z,9836.00
2022-09-29T06:44:53.201Z,9996.00
2022-09-29T06:45:53.257Z,10252.00
2022-09-29T06:46:55.418Z,10380.00
2022-09-29T06:47:56.623Z,10428.00
2022-09-29T06:48:53.164Z,10720.00
2022-09-29T06:50:00.052Z,11728.00
2022-09-29T06:51:06.750Z,11984.00
2022-09-29T06:51:54.722Z,11888.00
2022-09-29T06:53:03.430Z,11716.00
2022-09-29T06:54:04.575Z,11420.00
2022-09-29T06:54:54.097Z,11100.00
2022-09-29T06:55:53.104Z,10960.00
2022-09-29T06:56:53.638Z,11172.00
2022-09-29T06:57:53.416Z,11716.00
2022-09-29T06:58:53.031Z,12300.00
2022-09-29T06:59:54.979Z,12220.00
2022-09-29T07:00:53.008Z,12456.00
2022-09-29T07:01:52.944Z,13476.00
2022-09-29T07:02:53.070Z,13188.00
2022-09-29T07:03:52.888Z,12156.00
2022-09-29T07:04:54.297Z,12256.00
2022-09-29T07:06:18.412Z,13048.00
2022-09-29T07:06:53.858Z,12456.00
2022-09-29T07:07:56.448Z,13472.00
2022-09-29T07:08:55.489Z,14368.00
2022-09-29T07:09:54.939Z,14020.00
2022-09-29T07:10:52.920Z,13816.00
2022-09-29T07:11:53.072Z,14920.00
2022-09-29T07:12:52.501Z,14096.00
2022-09-29T07:13:54.700Z,14568.00
2022-09-29T07:14:52.883Z,14212.00
2022-09-29T07:15:52.835Z,14384.00
2022-09-29T07:16:54.733Z,14672.00
2022-09-29T07:17:54.241Z,15000.00
2022-09-29T07:18:52.476Z,15148.00
2022-09-29T07:19:52.522Z,15588.00
2022-09-29T07:20:52.662Z,16124.00
2022-09-29T07:21:53.442Z,15784.00
2022-09-29T07:22:52.465Z,15804.00
2022-09-29T07:23:52.504Z,16256.00
2022-09-29T07:24:53.229Z,16128.00
2022-09-29T07:25:52.760Z,16276.00
2022-09-29T07:26:52.392Z,16252.00
2022-09-29T07:27:53.185Z,16704.00
2022-09-29T07:28:53.095Z,17056.00
2022-09-29T07:30:02.985Z,17472.00
2022-09-29T07:30:57.749Z,18080.00
2022-09-29T07:31:54.134Z,17824.00
2022-09-29T07:33:00.757Z,18272.00
2022-09-29T07:33:54.147Z,17632.00
2022-09-29T07:34:52.257Z,17376.00
2022-09-29T07:35:52.227Z,17440.00
2022-09-29T07:36:52.175Z,17408.00
2022-09-29T07:37:52.218Z,17760.00
2022-09-29T07:38:53.430Z,17760.00
2022-09-29T07:39:52.157Z,17472.00
2022-09-29T07:40:52.347Z,17312.00
2022-09-29T07:41:53.545Z,17312.00
2022-09-29T07:42:52.117Z,17536.00
2022-09-29T07:43:53.664Z,17728.00
2022-09-29T07:44:52.649Z,17824.00
2022-09-29T07:45:52.328Z,17920.00
2022-09-29T07:46:53.960Z,17760.00
2022-09-29T07:47:53.859Z,17728.00
2022-09-29T07:48:56.558Z,17888.00
2022-09-29T07:49:52.707Z,17856.00
2022-09-29T07:50:54.004Z,17888.00
2022-09-29T07:51:52.409Z,18048.00
2022-09-29T07:52:52.331Z,17984.00
2022-09-29T07:53:54.120Z,18080.00
2022-09-29T07:54:52.247Z,18112.00
2022-09-29T07:55:53.886Z,18272.00
2022-09-29T07:56:53.589Z,18208.00
2022-09-29T07:57:53.873Z,18304.00
2022-09-29T07:58:53.112Z,18400.00
2022-09-29T07:59:53.966Z,18528.00
2022-09-29T08:00:53.689Z,18720.00
2022-09-29T08:01:53.915Z,18816.00
2022-09-29T08:02:52.533Z,18976.00
2022-09-29T08:03:54.175Z,19136.00
2022-09-29T08:04:57.202Z,19264.00
2022-09-29T08:05:56.321Z,19520.00
2022-09-29T08:06:52.245Z,19808.00
2022-09-29T08:07:51.789Z,19936.00
2022-09-29T08:09:03.451Z,20032.00
2022-09-29T08:09:53.519Z,20064.00
2022-09-29T08:10:53.880Z,20128.00
2022-09-29T08:12:04.599Z,20128.00
2022-09-29T08:12:53.197Z,20128.00
2022-09-29T08:13:51.660Z,20160.00
2022-09-29T08:14:51.669Z,20128.00
2022-09-29T08:15:51.729Z,20288.00
2022-09-29T08:16:52.652Z,20160.00
2022-09-29T08:17:51.610Z,20032.00
2022-09-29T08:18:51.650Z,19776.00
2022-09-29T08:19:51.621Z,19488.00
2022-09-29T08:20:52.451Z,19232.00
2022-09-29T08:21:52.360Z,19008.00
2022-09-29T08:22:52.539Z,18848.00
2022-09-29T08:23:51.503Z,18816.00
2022-09-29T08:24:52.332Z,18720.00
2022-09-29T08:25:59.902Z,18656.00
2022-09-29T08:26:52.501Z,18592.00
2022-09-29T08:27:55.688Z,18432.00
2022-09-29T08:29:03.294Z,18176.00
2022-09-29T08:29:52.464Z,18048.00
2022-09-29T08:30:52.273Z,17920.00
2022-09-29T08:31:51.493Z,17824.00
2022-09-29T08:32:51.394Z,17696.00
2022-09-29T08:33:52.226Z,17632.00
2022-09-29T08:34:52.136Z,17600.00
2022-09-29T08:35:51.384Z,17504.00
2022-09-29T08:36:51.325Z,17408.00
2022-09-29T08:37:51.672Z,17344.00
2022-09-29T08:38:52.263Z,17248.00
2022-09-29T08:39:52.168Z,17184.00
2022-09-29T08:40:52.122Z,17120.00
2022-09-29T08:41:51.766Z,17120.00
2022-09-29T08:42:51.267Z,17024.00
2022-09-29T08:43:51.219Z,16960.00
2022-09-29T08:44:52.205Z,16832.00
2022-09-29T08:46:00.104Z,16648.00
2022-09-29T08:47:04.766Z,16676.00
2022-09-29T08:47:52.251Z,16676.00
2022-09-29T08:48:58.090Z,16896.00
2022-09-29T08:49:53.003Z,16992.00
2022-09-29T08:50:52.133Z,17088.00
2022-09-29T08:51:51.108Z,17216.00
2022-09-29T08:52:52.834Z,17280.00
2022-09-29T08:54:00.947Z,17344.00
2022-09-29T08:54:52.471Z,17440.00
2022-09-29T08:55:51.660Z,17504.00
2022-09-29T08:56:51.046Z,17568.00
2022-09-29T08:57:51.984Z,17632.00
2022-09-29T08:58:51.582Z,17664.00
2022-09-29T08:59:51.611Z,17728.00
2022-09-29T09:00:51.088Z,17728.00
2022-09-29T09:01:50.973Z,17728.00
2022-09-29T09:02:56.331Z,17824.00
2022-09-29T09:03:52.613Z,17984.00
2022-09-29T09:04:50.915Z,18048.00
2022-09-29T09:05:50.941Z,18176.00
2022-09-29T09:06:51.932Z,18208.00
2022-09-29T09:07:51.145Z,18240.00
2022-09-29T09:08:50.903Z,18368.00
2022-09-29T09:09:51.883Z,18464.00
2022-09-29T09:10:51.746Z,18464.00
2022-09-29T09:11:50.818Z,18496.00
2022-09-29T09:12:50.840Z,18496.00
2022-09-29T09:13:50.797Z,18528.00
2022-09-29T09:14:51.631Z,18464.00
2022-09-29T09:15:50.781Z,18464.00
2022-09-29T09:16:51.767Z,18560.00
2022-09-29T09:17:50.758Z,18400.00
2022-09-29T09:18:50.818Z,18432.00
2022-09-29T09:19:51.664Z,18368.00
2022-09-29T09:20:51.557Z,18400.00
2022-09-29T09:21:51.458Z,18528.00
2022-09-29T09:22:50.678Z,18688.00
2022-09-29T09:23:53.327Z,18720.00
2022-09-29T09:24:50.669Z,18752.00
2022-09-29T09:25:51.590Z,18848.00
2022-09-29T09:26:50.663Z,18848.00
2022-09-29T09:27:51.412Z,18880.00
2022-09-29T09:28:50.628Z,18784.00
2022-09-29T09:29:50.825Z,18720.00
2022-09-29T09:30:50.605Z,18720.00
2022-09-29T09:31:51.535Z,18624.00
2022-09-29T09:32:50.543Z,18624.00
2022-09-29T09:34:01.416Z,18656.00
2022-09-29T09:34:51.597Z,18624.00
2022-09-29T09:35:57.927Z,18624.00
2022-09-29T09:37:02.336Z,18848.00
2022-09-29T09:37:51.496Z,18912.00
2022-09-29T09:38:51.369Z,19136.00
2022-09-29T09:39:50.474Z,19264.00
2022-09-29T09:40:51.175Z,19232.00
2022-09-29T09:41:50.433Z,19328.00
2022-09-29T09:42:51.238Z,19232.00
2022-09-29T09:43:51.144Z,19328.00
2022-09-29T09:44:51.325Z,19456.00
2022-09-29T09:45:51.240Z,19552.00
2022-09-29T09:46:51.806Z,19936.00
2022-09-29T09:47:50.455Z,20352.00
2022-09-29T09:48:50.358Z,20800.00
2022-09-29T09:49:51.076Z,21088.00
2022-09-29T09:50:50.703Z,21888.00
2022-09-29T09:51:50.379Z,22816.00
2022-09-29T09:52:50.439Z,24096.00
2022-09-29T09:53:50.288Z,22048.00
2022-09-29T09:54:51.109Z,22048.00
2022-09-29T09:55:51.010Z,22272.00
2022-09-29T09:56:51.170Z,22432.00
2022-09-29T09:57:50.235Z,22848.00
2022-09-29T09:58:50.218Z,23680.00
2022-09-29T09:59:54.000Z,23840.00
2022-09-29T10:00:51.309Z,24064.00
2022-09-29T10:01:50.161Z,24128.00
2022-09-29T10:02:50.176Z,24704.00
2022-09-29T10:03:50.721Z,25056.00
2022-09-29T10:04:50.921Z,25696.00
2022-09-29T10:05:50.823Z,26880.00
2022-09-29T10:06:50.981Z,26464.00
2022-09-29T10:07:50.901Z,27040.00
2022-09-29T10:08:50.795Z,26720.00
2022-09-29T10:09:51.009Z,26688.00
2022-09-29T10:10:58.083Z,26560.00
2022-09-29T10:11:51.035Z,26496.00
2022-09-29T10:12:50.178Z,27008.00
2022-09-29T10:13:50.826Z,27296.00
2022-09-29T10:14:49.964Z,28320.00
2022-09-29T10:15:50.195Z,29600.00
2022-09-29T10:16:50.823Z,30688.00
2022-09-29T10:17:50.257Z,32032.00
2022-09-29T10:18:49.916Z,33344.00
2022-09-29T10:19:50.236Z,33920.00
2022-09-29T10:20:49.926Z,34112.00
2022-09-29T10:21:50.106Z,35200.00
2022-09-29T10:22:51.846Z,34336.00
2022-09-29T10:23:50.641Z,34624.00
2022-09-29T10:24:50.787Z,36608.00
2022-09-29T10:25:50.698Z,36960.00
2022-09-29T10:26:49.892Z,34176.00
2022-09-29T10:27:49.767Z,34368.00
2022-09-29T10:28:49.789Z,34976.00
2022-09-29T10:29:49.819Z,34208.00
2022-09-29T10:30:49.847Z,33056.00
2022-09-29T10:31:49.694Z,32928.00
2022-09-29T10:32:50.539Z,32448.00
2022-09-29T10:33:49.714Z,32192.00
2022-09-29T10:34:49.700Z,31232.00
2022-09-29T10:35:49.752Z,30528.00
2022-09-29T10:36:49.771Z,29600.00
2022-09-29T10:37:50.065Z,27712.00
2022-09-29T10:38:50.749Z,27552.00
2022-09-29T10:39:49.613Z,26528.00
2022-09-29T10:40:49.644Z,25856.00
2022-09-29T10:41:49.610Z,25216.00
2022-09-29T10:42:49.573Z,24768.00
2022-09-29T10:43:50.503Z,24096.00
2022-09-29T10:44:50.263Z,23200.00
2022-09-29T10:45:49.640Z,22848.00
2022-09-29T10:46:49.542Z,22272.00
2022-09-29T10:47:50.377Z,21696.00
2022-09-29T10:48:50.280Z,21408.00
2022-09-29T10:49:49.474Z,21376.00
2022-09-29T10:50:49.725Z,21376.00
2022-09-29T10:51:50.246Z,21504.00
2022-09-29T10:52:49.468Z,21504.00
2022-09-29T10:53:49.519Z,21728.00
2022-09-29T10:54:49.459Z,21856.00
2022-09-29T10:55:49.541Z,22144.00
2022-09-29T10:56:50.280Z,22688.00
2022-09-29T10:57:50.181Z,23008.00
2022-09-29T10:59:06.224Z,23072.00
2022-09-29T10:59:50.501Z,23264.00
2022-09-29T11:00:50.153Z,24224.00
2022-09-29T11:01:50.312Z,25440.00
2022-09-29T11:02:50.732Z,26080.00
2022-09-29T11:03:49.276Z,26752.00
2022-09-29T11:04:50.028Z,27616.00
2022-09-29T11:05:49.733Z,28384.00
2022-09-29T11:06:49.680Z,30144.00
2022-09-29T11:07:49.184Z,32224.00
2022-09-29T11:08:49.204Z,33408.00
2022-09-29T11:09:50.052Z,33216.00
2022-09-29T11:10:49.962Z,34944.00
2022-09-29T11:11:49.216Z,35968.00
2022-09-29T11:12:50.016Z,33824.00
2022-09-29T11:13:49.225Z,32864.00
2022-09-29T11:14:50.145Z,40480.00
2022-09-29T11:15:49.151Z,44192.00
2022-09-29T11:16:50.926Z,47008.00
2022-09-29T11:17:49.317Z,47488.00
2022-09-29T11:18:49.498Z,48032.00
2022-09-29T11:19:49.049Z,45856.00
2022-09-29T11:20:49.638Z,45344.00
2022-09-29T11:21:49.446Z,44224.00
2022-09-29T11:22:49.053Z,41600.00
2022-09-29T11:23:50.401Z,40096.00
2022-09-29T11:24:49.893Z,34208.00
2022-09-29T11:25:49.127Z,29120.00
2022-09-29T11:26:48.912Z,27392.00
2022-09-29T11:27:49.907Z,25696.00
2022-09-29T11:28:49.765Z,25504.00
2022-09-29T11:29:48.881Z,23552.00
2022-09-29T11:30:48.930Z,22240.00
2022-09-29T11:31:49.739Z,21344.00
2022-09-29T11:32:49.657Z,20416.00
2022-09-29T11:33:49.932Z,19872.00
2022-09-29T11:34:50.343Z,19072.00
2022-09-29T11:35:48.796Z,18496.00
2022-09-29T11:36:49.795Z,17888.00
2022-09-29T11:37:48.785Z,17632.00
2022-09-29T11:38:49.609Z,17120.00
2022-09-29T11:39:48.747Z,16672.00
2022-09-29T11:40:48.715Z,16264.00
2022-09-29T11:41:48.706Z,16132.00
2022-09-29T11:42:48.709Z,16048.00
2022-09-29T11:43:48.727Z,16104.00
2022-09-29T11:44:49.506Z,16348.00
2022-09-29T11:45:49.458Z,16608.00
2022-09-29T11:46:48.701Z,16800.00
2022-09-29T11:47:48.658Z,16960.00
2022-09-29T11:48:48.615Z,16928.00
2022-09-29T11:49:48.640Z,17248.00
2022-09-29T11:50:49.451Z,17344.00
2022-09-29T11:51:48.594Z,17408.00
2022-09-29T11:52:49.510Z,17376.00
2022-09-29T11:53:49.410Z,17216.00
2022-09-29T11:54:49.990Z,17184.00
2022-09-29T11:55:48.605Z,16992.00
2022-09-29T11:56:49.428Z,16992.00
2022-09-29T11:57:48.482Z,16768.00
2022-09-29T11:58:48.478Z,16704.00
2022-09-29T11:59:49.353Z,16408.00
2022-09-29T12:00:48.483Z,16248.00
2022-09-29T12:01:48.463Z,15932.00
2022-09-29T12:02:48.532Z,15456.00
2022-09-29T12:03:49.228Z,15368.00
2022-09-29T12:04:49.397Z,15696.00
2022-09-29T12:05:49.858Z,15760.00
2022-09-29T12:06:48.420Z,15048.00
2022-09-29T12:07:48.344Z,14964.00
2022-09-29T12:08:48.343Z,15132.00
2022-09-29T12:09:48.445Z,15196.00
2022-09-29T12:10:48.476Z,15188.00
2022-09-29T12:12:05.371Z,15224.00
2022-09-29T12:13:49.031Z,14676.00
2022-09-29T12:14:48.257Z,14648.00
2022-09-29T12:15:48.228Z,14632.00
2022-09-29T12:16:48.667Z,14516.00
2022-09-29T12:17:48.240Z,14392.00
2022-09-29T12:18:49.068Z,14344.00
2022-09-29T12:19:48.974Z,14428.00
2022-09-29T12:20:48.203Z,14516.00
2022-09-29T12:21:49.029Z,14644.00
2022-09-29T12:22:48.937Z,14788.00
2022-09-29T12:23:48.122Z,14976.00
2022-09-29T12:24:48.599Z,15188.00
2022-09-29T12:25:50.039Z,15300.00